SVJC/LSP METAR and TAF weather

Enter ICAO airport designator
Station Type Date Time Source
SVJC METAR 2018/06/23 10:00 UTC NOAA

SVJC 231000Z NI


Station Type Date Time Source
SVJC Decoded METAR 2018/06/23 10:00 UTC NOAA

Paraguana / Josefa, Venezuela (SVJC) 11-47N 070-09W
Jun 23, 2018 - 06:00 AM EDT / 2018.06.23 1000 UTC
ob: SVJC 231000Z NI
cycle: 10

Station Type Date Time Source
SVJC TAF 2018/12/12 06:03 UTC NOAA

TAF TAF SVJC 120400Z 1206/1306 09010KT 9999 SCT013 TX34/19Z TN26/09Z
BECMG 1106/1110 09005KT FEW013


Example: see airport list